sensor_id;sensor_type;location;lat;lon;timestamp;temperature;humidity
33803;DHT22;20110;53.120;5.786;2023-05-07T00:00:38;11.90;99.90
33803;DHT22;20110;53.120;5.786;2023-05-07T00:03:04;11.90;99.90
33803;DHT22;20110;53.120;5.786;2023-05-07T00:05:30;11.80;99.90
33803;DHT22;20110;53.120;5.786;2023-05-07T00:07:56;11.90;99.90
33803;DHT22;20110;53.120;5.786;2023-05-07T00:10:22;11.90;99.90
33803;DHT22;20110;53.120;5.786;2023-05-07T00:12:48;11.90;99.90
33803;DHT22;20110;53.120;5.786;2023-05-07T00:15:14;11.80;99.90
33803;DHT22;20110;53.120;5.786;2023-05-07T00:17:40;11.80;99.90
33803;DHT22;20110;53.120;5.786;2023-05-07T00:20:06;11.80;99.90
33803;DHT22;20110;53.120;5.786;2023-05-07T00:22:32;11.80;99.90
33803;DHT22;20110;53.120;5.786;2023-05-07T00:24:58;11.80;99.90
33803;DHT22;20110;53.120;5.786;2023-05-07T00:27:24;11.80;99.90
33803;DHT22;20110;53.120;5.786;2023-05-07T00:29:50;11.70;99.90
33803;DHT22;20110;53.120;5.786;2023-05-07T00:32:16;11.70;99.90
33803;DHT22;20110;53.120;5.786;2023-05-07T00:34:43;11.70;99.90
33803;DHT22;20110;53.120;5.786;2023-05-07T00:37:09;11.70;99.90
33803;DHT22;20110;53.120;5.786;2023-05-07T00:39:35;11.70;99.90
33803;DHT22;20110;53.120;5.786;2023-05-07T00:42:01;11.60;99.90
33803;DHT22;20110;53.120;5.786;2023-05-07T00:44:28;11.60;99.90
33803;DHT22;20110;53.120;5.786;2023-05-07T00:46:58;11.60;99.90
33803;DHT22;20110;53.120;5.786;2023-05-07T00:49:38;11.60;99.90
33803;DHT22;20110;53.120;5.786;2023-05-07T00:52:07;11.50;99.90
33803;DHT22;20110;53.120;5.786;2023-05-07T00:54:35;11.50;99.90
33803;DHT22;20110;53.120;5.786;2023-05-07T00:57:02;11.50;99.90
33803;DHT22;20110;53.120;5.786;2023-05-07T00:59:32;11.50;99.90
33803;DHT22;20110;53.120;5.786;2023-05-07T01:01:59;11.50;99.90
33803;DHT22;20110;53.120;5.786;2023-05-07T01:04:26;11.50;99.90
33803;DHT22;20110;53.120;5.786;2023-05-07T01:06:53;11.50;99.90
33803;DHT22;20110;53.120;5.786;2023-05-07T01:09:22;11.50;99.90
33803;DHT22;20110;53.120;5.786;2023-05-07T01:11:50;11.50;99.90
33803;DHT22;20110;53.120;5.786;2023-05-07T01:14:18;11.50;99.90
33803;DHT22;20110;53.120;5.786;2023-05-07T01:16:46;11.40;99.90
33803;DHT22;20110;53.120;5.786;2023-05-07T01:19:14;11.40;99.90
33803;DHT22;20110;53.120;5.786;2023-05-07T01:21:46;11.40;99.90
33803;DHT22;20110;53.120;5.786;2023-05-07T01:24:14;11.40;99.90
33803;DHT22;20110;53.120;5.786;2023-05-07T01:26:41;11.40;99.90
33803;DHT22;20110;53.120;5.786;2023-05-07T01:29:08;11.40;99.90
33803;DHT22;20110;53.120;5.786;2023-05-07T01:31:34;11.40;99.90
33803;DHT22;20110;53.120;5.786;2023-05-07T01:34:01;11.40;99.90
33803;DHT22;20110;53.120;5.786;2023-05-07T01:36:30;11.30;99.90
33803;DHT22;20110;53.120;5.786;2023-05-07T01:38:57;11.30;99.90
33803;DHT22;20110;53.120;5.786;2023-05-07T01:41:24;11.30;99.90
33803;DHT22;20110;53.120;5.786;2023-05-07T01:43:52;11.30;99.90
33803;DHT22;20110;53.120;5.786;2023-05-07T01:46:18;11.30;99.90
33803;DHT22;20110;53.120;5.786;2023-05-07T01:48:45;11.20;99.90
33803;DHT22;20110;53.120;5.786;2023-05-07T01:51:12;11.30;99.90
33803;DHT22;20110;53.120;5.786;2023-05-07T01:53:39;11.20;99.90
33803;DHT22;20110;53.120;5.786;2023-05-07T01:56:06;11.20;99.90
33803;DHT22;20110;53.120;5.786;2023-05-07T01:58:32;11.20;99.90
33803;DHT22;20110;53.120;5.786;2023-05-07T02:00:59;11.20;99.90
33803;DHT22;20110;53.120;5.786;2023-05-07T02:03:25;11.10;99.90
33803;DHT22;20110;53.120;5.786;2023-05-07T02:05:51;11.10;99.90
33803;DHT22;20110;53.120;5.786;2023-05-07T02:08:17;11.10;99.90
33803;DHT22;20110;53.120;5.786;2023-05-07T02:10:42;11.10;99.90
33803;DHT22;20110;53.120;5.786;2023-05-07T02:13:08;11.00;99.90
33803;DHT22;20110;53.120;5.786;2023-05-07T02:15:34;11.00;99.90
33803;DHT22;20110;53.120;5.786;2023-05-07T02:18:08;11.00;99.90
33803;DHT22;20110;53.120;5.786;2023-05-07T02:20:34;11.00;99.90
33803;DHT22;20110;53.120;5.786;2023-05-07T02:23:01;10.90;99.90
33803;DHT22;20110;53.120;5.786;2023-05-07T02:25:26;11.00;99.90
33803;DHT22;20110;53.120;5.786;2023-05-07T02:27:52;10.90;99.90
33803;DHT22;20110;53.120;5.786;2023-05-07T02:30:18;10.90;99.90
33803;DHT22;20110;53.120;5.786;2023-05-07T02:32:46;10.90;99.90
33803;DHT22;20110;53.120;5.786;2023-05-07T02:35:12;10.90;99.90
33803;DHT22;20110;53.120;5.786;2023-05-07T02:37:38;10.90;99.90
33803;DHT22;20110;53.120;5.786;2023-05-07T02:40:04;10.90;99.90
33803;DHT22;20110;53.120;5.786;2023-05-07T02:42:30;10.90;99.90
33803;DHT22;20110;53.120;5.786;2023-05-07T02:44:56;10.80;99.90
33803;DHT22;20110;53.120;5.786;2023-05-07T02:47:22;10.90;99.90
33803;DHT22;20110;53.120;5.786;2023-05-07T02:49:48;10.90;99.90
33803;DHT22;20110;53.120;5.786;2023-05-07T02:52:13;10.90;99.90
33803;DHT22;20110;53.120;5.786;2023-05-07T02:54:39;10.90;99.90
33803;DHT22;20110;53.120;5.786;2023-05-07T02:57:05;10.80;99.90
33803;DHT22;20110;53.120;5.786;2023-05-07T02:59:31;10.80;99.90
33803;DHT22;20110;53.120;5.786;2023-05-07T03:01:56;10.80;99.90
33803;DHT22;20110;53.120;5.786;2023-05-07T03:04:22;10.80;99.90
33803;DHT22;20110;53.120;5.786;2023-05-07T03:06:48;10.80;99.90
33803;DHT22;20110;53.120;5.786;2023-05-07T03:09:14;10.80;99.90
33803;DHT22;20110;53.120;5.786;2023-05-07T03:11:40;10.80;99.90
33803;DHT22;20110;53.120;5.786;2023-05-07T03:14:05;10.70;99.90
33803;DHT22;20110;53.120;5.786;2023-05-07T03:16:31;10.60;99.90
33803;DHT22;20110;53.120;5.786;2023-05-07T03:18:57;10.60;99.90
33803;DHT22;20110;53.120;5.786;2023-05-07T03:21:23;10.60;99.90
33803;DHT22;20110;53.120;5.786;2023-05-07T03:23:48;10.50;99.90
33803;DHT22;20110;53.120;5.786;2023-05-07T03:26:14;10.50;99.90
33803;DHT22;20110;53.120;5.786;2023-05-07T03:28:40;10.40;99.90
33803;DHT22;20110;53.120;5.786;2023-05-07T03:31:06;10.40;99.90
33803;DHT22;20110;53.120;5.786;2023-05-07T03:33:35;10.30;99.90
33803;DHT22;20110;53.120;5.786;2023-05-07T03:36:04;10.30;99.90
33803;DHT22;20110;53.120;5.786;2023-05-07T03:38:31;10.30;99.90
33803;DHT22;20110;53.120;5.786;2023-05-07T03:40:57;10.30;99.90
33803;DHT22;20110;53.120;5.786;2023-05-07T03:43:22;10.20;99.90
33803;DHT22;20110;53.120;5.786;2023-05-07T03:45:48;10.20;99.90
33803;DHT22;20110;53.120;5.786;2023-05-07T03:48:14;10.10;99.90
33803;DHT22;20110;53.120;5.786;2023-05-07T03:50:40;10.20;99.90
33803;DHT22;20110;53.120;5.786;2023-05-07T03:53:06;10.20;99.90
33803;DHT22;20110;53.120;5.786;2023-05-07T03:55:32;10.20;99.90
33803;DHT22;20110;53.120;5.786;2023-05-07T03:57:57;10.20;99.90
33803;DHT22;20110;53.120;5.786;2023-05-07T04:00:23;10.10;99.90
33803;DHT22;20110;53.120;5.786;2023-05-07T04:02:49;10.10;99.90
33803;DHT22;20110;53.120;5.786;2023-05-07T04:05:15;10.10;99.90
33803;DHT22;20110;53.120;5.786;2023-05-07T04:07:41;10.10;99.90
33803;DHT22;20110;53.120;5.786;2023-05-07T04:10:07;10.10;99.90
33803;DHT22;20110;53.120;5.786;2023-05-07T04:12:33;10.00;99.90
33803;DHT22;20110;53.120;5.786;2023-05-07T04:14:59;9.90;99.90
33803;DHT22;20110;53.120;5.786;2023-05-07T04:17:25;9.90;99.90
33803;DHT22;20110;53.120;5.786;2023-05-07T04:19:50;9.90;99.90
33803;DHT22;20110;53.120;5.786;2023-05-07T04:22:16;9.90;99.90
33803;DHT22;20110;53.120;5.786;2023-05-07T04:24:42;9.80;99.90
33803;DHT22;20110;53.120;5.786;2023-05-07T04:27:08;9.80;99.90
33803;DHT22;20110;53.120;5.786;2023-05-07T04:29:33;9.90;99.90
33803;DHT22;20110;53.120;5.786;2023-05-07T04:31:59;9.90;99.90
33803;DHT22;20110;53.120;5.786;2023-05-07T04:34:25;9.90;99.90
33803;DHT22;20110;53.120;5.786;2023-05-07T04:36:51;9.90;99.90
33803;DHT22;20110;53.120;5.786;2023-05-07T04:39:17;9.90;99.90
33803;DHT22;20110;53.120;5.786;2023-05-07T04:41:43;9.90;99.90
33803;DHT22;20110;53.120;5.786;2023-05-07T04:44:09;9.90;99.90
33803;DHT22;20110;53.120;5.786;2023-05-07T04:46:34;10.00;99.90
33803;DHT22;20110;53.120;5.786;2023-05-07T04:49:00;9.90;99.90
33803;DHT22;20110;53.120;5.786;2023-05-07T04:51:26;9.90;99.90
33803;DHT22;20110;53.120;5.786;2023-05-07T04:53:53;9.90;99.90
33803;DHT22;20110;53.120;5.786;2023-05-07T04:56:19;9.90;99.90
33803;DHT22;20110;53.120;5.786;2023-05-07T04:58:45;9.90;99.90
33803;DHT22;20110;53.120;5.786;2023-05-07T05:01:11;9.90;99.90
33803;DHT22;20110;53.120;5.786;2023-05-07T05:03:37;10.00;99.90
33803;DHT22;20110;53.120;5.786;2023-05-07T05:06:05;10.00;99.90
33803;DHT22;20110;53.120;5.786;2023-05-07T05:08:31;9.90;99.90
33803;DHT22;20110;53.120;5.786;2023-05-07T05:10:56;9.90;99.90
33803;DHT22;20110;53.120;5.786;2023-05-07T05:13:22;10.00;99.90
33803;DHT22;20110;53.120;5.786;2023-05-07T05:15:48;9.90;99.90
33803;DHT22;20110;53.120;5.786;2023-05-07T05:18:14;9.90;99.90
33803;DHT22;20110;53.120;5.786;2023-05-07T05:20:40;9.90;99.90
33803;DHT22;20110;53.120;5.786;2023-05-07T05:23:05;9.90;99.90
33803;DHT22;20110;53.120;5.786;2023-05-07T05:25:32;10.00;99.90
33803;DHT22;20110;53.120;5.786;2023-05-07T05:27:58;10.00;99.90
33803;DHT22;20110;53.120;5.786;2023-05-07T05:30:24;10.00;99.90
33803;DHT22;20110;53.120;5.786;2023-05-07T05:32:50;10.00;99.90
33803;DHT22;20110;53.120;5.786;2023-05-07T05:35:16;10.00;99.90
33803;DHT22;20110;53.120;5.786;2023-05-07T05:37:42;10.00;99.90
33803;DHT22;20110;53.120;5.786;2023-05-07T05:40:08;10.10;99.90
33803;DHT22;20110;53.120;5.786;2023-05-07T05:42:34;10.00;99.90
33803;DHT22;20110;53.120;5.786;2023-05-07T05:44:59;10.10;99.90
33803;DHT22;20110;53.120;5.786;2023-05-07T05:47:25;10.10;99.90
33803;DHT22;20110;53.120;5.786;2023-05-07T05:49:51;10.00;99.90
33803;DHT22;20110;53.120;5.786;2023-05-07T05:52:17;10.10;99.90
33803;DHT22;20110;53.120;5.786;2023-05-07T05:54:42;10.20;99.90
33803;DHT22;20110;53.120;5.786;2023-05-07T05:57:08;10.00;99.90
33803;DHT22;20110;53.120;5.786;2023-05-07T05:59:34;10.20;99.90
33803;DHT22;20110;53.120;5.786;2023-05-07T06:02:00;10.10;99.90
33803;DHT22;20110;53.120;5.786;2023-05-07T06:04:26;10.20;99.90
33803;DHT22;20110;53.120;5.786;2023-05-07T06:06:52;10.20;99.90
33803;DHT22;20110;53.120;5.786;2023-05-07T06:09:18;10.30;99.90
33803;DHT22;20110;53.120;5.786;2023-05-07T06:11:43;10.30;99.90
33803;DHT22;20110;53.120;5.786;2023-05-07T06:14:09;10.40;99.90
33803;DHT22;20110;53.120;5.786;2023-05-07T06:16:35;10.40;99.90
33803;DHT22;20110;53.120;5.786;2023-05-07T06:19:03;10.40;99.90
33803;DHT22;20110;53.120;5.786;2023-05-07T06:21:29;10.50;99.90
33803;DHT22;20110;53.120;5.786;2023-05-07T06:23:55;10.50;99.90
33803;DHT22;20110;53.120;5.786;2023-05-07T06:26:21;10.60;99.90
33803;DHT22;20110;53.120;5.786;2023-05-07T06:28:47;10.70;99.90
33803;DHT22;20110;53.120;5.786;2023-05-07T06:31:19;10.70;99.90
33803;DHT22;20110;53.120;5.786;2023-05-07T06:33:46;10.70;99.90
33803;DHT22;20110;53.120;5.786;2023-05-07T06:36:12;10.80;99.90
33803;DHT22;20110;53.120;5.786;2023-05-07T06:38:38;10.70;99.90
33803;DHT22;20110;53.120;5.786;2023-05-07T06:41:06;10.80;99.90
33803;DHT22;20110;53.120;5.786;2023-05-07T06:43:32;10.90;99.90
33803;DHT22;20110;53.120;5.786;2023-05-07T06:45:58;11.00;99.90
33803;DHT22;20110;53.120;5.786;2023-05-07T06:48:24;11.10;99.90
33803;DHT22;20110;53.120;5.786;2023-05-07T06:50:50;11.30;99.90
33803;DHT22;20110;53.120;5.786;2023-05-07T06:53:16;11.30;99.90
33803;DHT22;20110;53.120;5.786;2023-05-07T06:55:42;11.40;99.90
33803;DHT22;20110;53.120;5.786;2023-05-07T06:58:07;11.70;99.90
33803;DHT22;20110;53.120;5.786;2023-05-07T07:00:33;11.90;99.90
33803;DHT22;20110;53.120;5.786;2023-05-07T07:03:00;12.10;99.90
33803;DHT22;20110;53.120;5.786;2023-05-07T07:05:26;11.90;99.90
33803;DHT22;20110;53.120;5.786;2023-05-07T07:07:52;11.80;1.00
33803;DHT22;20110;53.120;5.786;2023-05-07T07:10:21;11.90;1.00
33803;DHT22;20110;53.120;5.786;2023-05-07T07:12:48;12.30;1.00
33803;DHT22;20110;53.120;5.786;2023-05-07T07:15:15;12.00;99.90
33803;DHT22;20110;53.120;5.786;2023-05-07T07:17:41;12.20;99.90
33803;DHT22;20110;53.120;5.786;2023-05-07T07:20:07;12.30;99.90
33803;DHT22;20110;53.120;5.786;2023-05-07T07:22:33;12.40;36.30
33803;DHT22;20110;53.120;5.786;2023-05-07T07:24:59;12.70;27.90
33803;DHT22;20110;53.120;5.786;2023-05-07T07:27:25;12.70;1.00
33803;DHT22;20110;53.120;5.786;2023-05-07T07:29:51;12.70;99.90
33803;DHT22;20110;53.120;5.786;2023-05-07T07:32:17;13.00;1.00
33803;DHT22;20110;53.120;5.786;2023-05-07T07:34:43;12.80;99.90
33803;DHT22;20110;53.120;5.786;2023-05-07T07:37:08;12.70;99.90
33803;DHT22;20110;53.120;5.786;2023-05-07T07:39:35;12.80;99.90
33803;DHT22;20110;53.120;5.786;2023-05-07T07:42:03;12.60;99.90
33803;DHT22;20110;53.120;5.786;2023-05-07T07:44:29;12.60;99.90
33803;DHT22;20110;53.120;5.786;2023-05-07T07:46:55;12.70;99.90
33803;DHT22;20110;53.120;5.786;2023-05-07T07:49:21;13.00;99.90
33803;DHT22;20110;53.120;5.786;2023-05-07T07:51:46;13.00;99.90
33803;DHT22;20110;53.120;5.786;2023-05-07T07:54:12;13.10;99.90
33803;DHT22;20110;53.120;5.786;2023-05-07T07:56:38;13.10;99.90
33803;DHT22;20110;53.120;5.786;2023-05-07T07:59:04;13.00;99.90
33803;DHT22;20110;53.120;5.786;2023-05-07T08:01:30;13.10;99.90
33803;DHT22;20110;53.120;5.786;2023-05-07T08:03:56;13.10;99.90
33803;DHT22;20110;53.120;5.786;2023-05-07T08:06:25;13.10;99.90
33803;DHT22;20110;53.120;5.786;2023-05-07T08:08:52;12.90;99.90
33803;DHT22;20110;53.120;5.786;2023-05-07T08:11:18;13.10;99.90
33803;DHT22;20110;53.120;5.786;2023-05-07T08:13:44;13.00;99.90
33803;DHT22;20110;53.120;5.786;2023-05-07T08:16:10;13.00;99.90
33803;DHT22;20110;53.120;5.786;2023-05-07T08:18:36;13.30;99.90
33803;DHT22;20110;53.120;5.786;2023-05-07T08:21:02;13.70;99.90
33803;DHT22;20110;53.120;5.786;2023-05-07T08:23:28;14.00;99.90
33803;DHT22;20110;53.120;5.786;2023-05-07T08:25:54;14.40;63.00
33803;DHT22;20110;53.120;5.786;2023-05-07T08:28:20;14.70;1.00
33803;DHT22;20110;53.120;5.786;2023-05-07T08:30:46;15.20;1.00
33803;DHT22;20110;53.120;5.786;2023-05-07T08:33:12;15.30;99.90
33803;DHT22;20110;53.120;5.786;2023-05-07T08:35:38;15.40;99.90
33803;DHT22;20110;53.120;5.786;2023-05-07T08:38:04;14.70;99.90
33803;DHT22;20110;53.120;5.786;2023-05-07T08:40:36;14.60;99.90
33803;DHT22;20110;53.120;5.786;2023-05-07T08:43:05;14.20;99.90
33803;DHT22;20110;53.120;5.786;2023-05-07T08:45:34;14.10;99.90
33803;DHT22;20110;53.120;5.786;2023-05-07T08:48:02;14.30;99.90
33803;DHT22;20110;53.120;5.786;2023-05-07T08:50:30;14.50;99.90
33803;DHT22;20110;53.120;5.786;2023-05-07T08:52:56;14.50;99.90
33803;DHT22;20110;53.120;5.786;2023-05-07T08:55:23;15.00;99.90
33803;DHT22;20110;53.120;5.786;2023-05-07T08:57:50;15.20;99.90
33803;DHT22;20110;53.120;5.786;2023-05-07T09:00:18;15.00;99.90
33803;DHT22;20110;53.120;5.786;2023-05-07T09:02:44;14.70;99.90
33803;DHT22;20110;53.120;5.786;2023-05-07T09:05:10;14.70;99.90
33803;DHT22;20110;53.120;5.786;2023-05-07T09:07:36;14.60;99.90
33803;DHT22;20110;53.120;5.786;2023-05-07T09:10:03;14.50;99.90
33803;DHT22;20110;53.120;5.786;2023-05-07T09:12:30;14.80;99.90
33803;DHT22;20110;53.120;5.786;2023-05-07T09:14:57;15.00;99.90
33803;DHT22;20110;53.120;5.786;2023-05-07T09:17:24;15.60;99.90
33803;DHT22;20110;53.120;5.786;2023-05-07T09:19:50;15.60;99.90
33803;DHT22;20110;53.120;5.786;2023-05-07T09:22:16;16.00;99.90
33803;DHT22;20110;53.120;5.786;2023-05-07T09:24:47;16.40;99.90
33803;DHT22;20110;53.120;5.786;2023-05-07T09:27:14;16.90;99.90
33803;DHT22;20110;53.120;5.786;2023-05-07T09:29:41;16.80;99.90
33803;DHT22;20110;53.120;5.786;2023-05-07T09:32:07;16.80;99.90
33803;DHT22;20110;53.120;5.786;2023-05-07T09:34:34;16.90;99.90
33803;DHT22;20110;53.120;5.786;2023-05-07T09:37:02;17.20;99.90
33803;DHT22;20110;53.120;5.786;2023-05-07T09:39:49;17.00;62.80
33803;DHT22;20110;53.120;5.786;2023-05-07T09:42:15;17.60;95.50
33803;DHT22;20110;53.120;5.786;2023-05-07T09:44:43;17.60;63.00
33803;DHT22;20110;53.120;5.786;2023-05-07T09:47:10;17.30;17.40
33803;DHT22;20110;53.120;5.786;2023-05-07T09:49:39;17.30;36.50
33803;DHT22;20110;53.120;5.786;2023-05-07T09:52:07;17.80;61.00
33803;DHT22;20110;53.120;5.786;2023-05-07T09:54:36;18.20;50.00
33803;DHT22;20110;53.120;5.786;2023-05-07T09:57:04;17.60;1.00
33803;DHT22;20110;53.120;5.786;2023-05-07T09:59:32;17.90;1.00
33803;DHT22;20110;53.120;5.786;2023-05-07T10:01:59;17.40;1.00
33803;DHT22;20110;53.120;5.786;2023-05-07T10:04:27;17.90;1.00
33803;DHT22;20110;53.120;5.786;2023-05-07T10:06:54;17.90;1.00
33803;DHT22;20110;53.120;5.786;2023-05-07T10:09:21;18.10;1.00
33803;DHT22;20110;53.120;5.786;2023-05-07T10:11:51;18.10;1.00
33803;DHT22;20110;53.120;5.786;2023-05-07T10:14:20;17.90;1.00
33803;DHT22;20110;53.120;5.786;2023-05-07T10:16:47;18.00;1.00
33803;DHT22;20110;53.120;5.786;2023-05-07T10:19:14;18.20;1.00
33803;DHT22;20110;53.120;5.786;2023-05-07T10:21:48;18.30;1.00
33803;DHT22;20110;53.120;5.786;2023-05-07T10:24:26;18.00;1.00
33803;DHT22;20110;53.120;5.786;2023-05-07T10:26:55;18.50;1.00
33803;DHT22;20110;53.120;5.786;2023-05-07T10:29:35;19.10;1.00
33803;DHT22;20110;53.120;5.786;2023-05-07T10:32:53;18.80;1.00
33803;DHT22;20110;53.120;5.786;2023-05-07T10:35:15;19.40;1.00
33803;DHT22;20110;53.120;5.786;2023-05-07T10:37:45;18.90;1.00
33803;DHT22;20110;53.120;5.786;2023-05-07T10:40:12;18.80;1.00
33803;DHT22;20110;53.120;5.786;2023-05-07T10:42:39;19.30;1.00
33803;DHT22;20110;53.120;5.786;2023-05-07T10:45:22;19.70;1.00
33803;DHT22;20110;53.120;5.786;2023-05-07T10:48:14;19.80;1.00
33803;DHT22;20110;53.120;5.786;2023-05-07T10:50:45;19.50;1.00
33803;DHT22;20110;53.120;5.786;2023-05-07T10:56:24;19.90;99.90
33803;DHT22;20110;53.120;5.786;2023-05-07T10:58:44;20.80;99.90
33803;DHT22;20110;53.120;5.786;2023-05-07T11:01:10;21.50;99.90
33803;DHT22;20110;53.120;5.786;2023-05-07T11:04:13;22.00;99.90
33803;DHT22;20110;53.120;5.786;2023-05-07T11:06:40;22.40;99.90
33803;DHT22;20110;53.120;5.786;2023-05-07T11:09:06;22.00;99.90
33803;DHT22;20110;53.120;5.786;2023-05-07T11:17:09;21.20;99.90
33803;DHT22;20110;53.120;5.786;2023-05-07T11:19:52;21.10;99.90
33803;DHT22;20110;53.120;5.786;2023-05-07T11:25:00;22.30;99.90
33803;DHT22;20110;53.120;5.786;2023-05-07T11:27:27;22.20;99.90
33803;DHT22;20110;53.120;5.786;2023-05-07T11:29:54;21.60;99.90
33803;DHT22;20110;53.120;5.786;2023-05-07T11:32:29;21.30;99.90
33803;DHT22;20110;53.120;5.786;2023-05-07T11:35:00;21.20;99.90
33803;DHT22;20110;53.120;5.786;2023-05-07T11:37:27;21.00;99.90
33803;DHT22;20110;53.120;5.786;2023-05-07T11:40:06;20.70;99.90
33803;DHT22;20110;53.120;5.786;2023-05-07T11:42:36;20.40;99.90
33803;DHT22;20110;53.120;5.786;2023-05-07T11:45:05;20.50;99.90
33803;DHT22;20110;53.120;5.786;2023-05-07T11:47:32;20.20;99.90
33803;DHT22;20110;53.120;5.786;2023-05-07T11:50:04;20.40;99.90
33803;DHT22;20110;53.120;5.786;2023-05-07T11:52:31;20.70;99.90
33803;DHT22;20110;53.120;5.786;2023-05-07T11:54:59;21.30;99.90
33803;DHT22;20110;53.120;5.786;2023-05-07T11:57:27;21.10;99.90
33803;DHT22;20110;53.120;5.786;2023-05-07T11:59:58;21.80;99.90
33803;DHT22;20110;53.120;5.786;2023-05-07T12:02:26;22.00;99.90
33803;DHT22;20110;53.120;5.786;2023-05-07T12:04:54;22.20;99.90
33803;DHT22;20110;53.120;5.786;2023-05-07T12:07:24;22.70;99.90
33803;DHT22;20110;53.120;5.786;2023-05-07T12:09:52;22.30;99.90
33803;DHT22;20110;53.120;5.786;2023-05-07T12:12:19;23.30;99.90
33803;DHT22;20110;53.120;5.786;2023-05-07T12:14:45;22.60;99.90
33803;DHT22;20110;53.120;5.786;2023-05-07T12:17:18;22.50;99.90
33803;DHT22;20110;53.120;5.786;2023-05-07T12:19:45;22.70;99.90
33803;DHT22;20110;53.120;5.786;2023-05-07T12:22:12;23.50;99.90
33803;DHT22;20110;53.120;5.786;2023-05-07T12:24:57;22.90;99.90
33803;DHT22;20110;53.120;5.786;2023-05-07T12:27:23;22.90;99.90
33803;DHT22;20110;53.120;5.786;2023-05-07T12:29:51;21.90;99.90
33803;DHT22;20110;53.120;5.786;2023-05-07T12:32:20;22.00;99.90
33803;DHT22;20110;53.120;5.786;2023-05-07T12:34:51;22.10;99.90
33803;DHT22;20110;53.120;5.786;2023-05-07T12:37:25;22.00;99.90
33803;DHT22;20110;53.120;5.786;2023-05-07T12:40:11;23.20;99.90
33803;DHT22;20110;53.120;5.786;2023-05-07T12:42:40;23.40;99.90
33803;DHT22;20110;53.120;5.786;2023-05-07T12:45:13;22.40;99.90
33803;DHT22;20110;53.120;5.786;2023-05-07T12:47:45;22.90;99.90
33803;DHT22;20110;53.120;5.786;2023-05-07T12:50:15;22.30;99.90
33803;DHT22;20110;53.120;5.786;2023-05-07T12:52:52;22.70;99.90
33803;DHT22;20110;53.120;5.786;2023-05-07T12:55:18;23.00;99.90
33803;DHT22;20110;53.120;5.786;2023-05-07T12:57:48;22.90;99.90
33803;DHT22;20110;53.120;5.786;2023-05-07T13:00:32;22.70;99.90
33803;DHT22;20110;53.120;5.786;2023-05-07T13:03:02;23.00;99.90
33803;DHT22;20110;53.120;5.786;2023-05-07T13:05:30;22.80;99.90
33803;DHT22;20110;53.120;5.786;2023-05-07T13:07:57;23.20;99.90
33803;DHT22;20110;53.120;5.786;2023-05-07T13:10:24;23.30;99.90
33803;DHT22;20110;53.120;5.786;2023-05-07T13:12:50;22.80;99.90
33803;DHT22;20110;53.120;5.786;2023-05-07T13:15:17;22.70;99.90
33803;DHT22;20110;53.120;5.786;2023-05-07T13:17:43;21.80;99.90
33803;DHT22;20110;53.120;5.786;2023-05-07T13:20:10;22.40;99.90
33803;DHT22;20110;53.120;5.786;2023-05-07T13:22:37;22.60;99.90
33803;DHT22;20110;53.120;5.786;2023-05-07T13:25:03;22.30;99.90
33803;DHT22;20110;53.120;5.786;2023-05-07T13:27:29;22.50;99.90
33803;DHT22;20110;53.120;5.786;2023-05-07T13:29:56;22.40;99.90
33803;DHT22;20110;53.120;5.786;2023-05-07T13:32:22;22.10;99.90
33803;DHT22;20110;53.120;5.786;2023-05-07T13:34:48;22.60;99.90
33803;DHT22;20110;53.120;5.786;2023-05-07T13:37:15;21.90;99.90
33803;DHT22;20110;53.120;5.786;2023-05-07T13:39:40;22.00;99.90
33803;DHT22;20110;53.120;5.786;2023-05-07T13:42:06;21.90;99.90
33803;DHT22;20110;53.120;5.786;2023-05-07T13:44:32;22.10;99.90
33803;DHT22;20110;53.120;5.786;2023-05-07T13:46:58;21.90;99.90
33803;DHT22;20110;53.120;5.786;2023-05-07T13:49:24;22.20;99.90
33803;DHT22;20110;53.120;5.786;2023-05-07T13:51:50;21.70;99.90
33803;DHT22;20110;53.120;5.786;2023-05-07T13:54:16;22.20;99.90
33803;DHT22;20110;53.120;5.786;2023-05-07T13:56:42;22.00;99.90
33803;DHT22;20110;53.120;5.786;2023-05-07T13:59:08;22.40;99.90
33803;DHT22;20110;53.120;5.786;2023-05-07T14:01:33;22.80;99.90
33803;DHT22;20110;53.120;5.786;2023-05-07T14:03:59;22.80;99.90
33803;DHT22;20110;53.120;5.786;2023-05-07T14:06:25;22.40;99.90
33803;DHT22;20110;53.120;5.786;2023-05-07T14:08:51;22.60;99.90
33803;DHT22;20110;53.120;5.786;2023-05-07T14:11:17;22.60;99.90
33803;DHT22;20110;53.120;5.786;2023-05-07T14:13:43;22.80;99.90
33803;DHT22;20110;53.120;5.786;2023-05-07T14:16:09;22.50;99.90
33803;DHT22;20110;53.120;5.786;2023-05-07T14:18:35;22.40;99.90
33803;DHT22;20110;53.120;5.786;2023-05-07T14:21:02;22.30;99.90
33803;DHT22;20110;53.120;5.786;2023-05-07T14:23:31;22.20;99.90
33803;DHT22;20110;53.120;5.786;2023-05-07T14:25:57;21.90;99.90
33803;DHT22;20110;53.120;5.786;2023-05-07T14:28:23;21.70;99.90
33803;DHT22;20110;53.120;5.786;2023-05-07T14:30:49;21.50;99.90
33803;DHT22;20110;53.120;5.786;2023-05-07T14:33:15;21.70;99.90
33803;DHT22;20110;53.120;5.786;2023-05-07T14:35:42;21.50;99.90
33803;DHT22;20110;53.120;5.786;2023-05-07T14:38:13;21.30;99.90
33803;DHT22;20110;53.120;5.786;2023-05-07T14:40:39;21.30;99.90
33803;DHT22;20110;53.120;5.786;2023-05-07T14:43:05;21.20;99.90
33803;DHT22;20110;53.120;5.786;2023-05-07T14:45:30;21.20;99.90
33803;DHT22;20110;53.120;5.786;2023-05-07T14:47:56;20.70;99.90
33803;DHT22;20110;53.120;5.786;2023-05-07T14:50:22;21.10;99.90
33803;DHT22;20110;53.120;5.786;2023-05-07T14:52:48;21.40;99.90
33803;DHT22;20110;53.120;5.786;2023-05-07T14:55:14;21.50;99.90
33803;DHT22;20110;53.120;5.786;2023-05-07T14:57:40;21.20;99.90
33803;DHT22;20110;53.120;5.786;2023-05-07T15:00:08;21.10;99.90
33803;DHT22;20110;53.120;5.786;2023-05-07T15:02:35;20.90;99.90
33803;DHT22;20110;53.120;5.786;2023-05-07T15:05:01;20.30;99.90
33803;DHT22;20110;53.120;5.786;2023-05-07T15:07:29;20.60;99.90
33803;DHT22;20110;53.120;5.786;2023-05-07T15:09:57;20.90;99.90
33803;DHT22;20110;53.120;5.786;2023-05-07T15:12:23;21.10;99.90
33803;DHT22;20110;53.120;5.786;2023-05-07T15:14:49;21.20;99.90
33803;DHT22;20110;53.120;5.786;2023-05-07T15:17:15;21.00;99.90
33803;DHT22;20110;53.120;5.786;2023-05-07T15:19:41;21.20;99.90
33803;DHT22;20110;53.120;5.786;2023-05-07T15:22:06;21.60;99.90
33803;DHT22;20110;53.120;5.786;2023-05-07T15:24:33;21.70;99.90
33803;DHT22;20110;53.120;5.786;2023-05-07T15:27:00;21.40;99.90
33803;DHT22;20110;53.120;5.786;2023-05-07T15:29:28;21.40;99.90
33803;DHT22;20110;53.120;5.786;2023-05-07T15:31:54;21.10;99.90
33803;DHT22;20110;53.120;5.786;2023-05-07T15:34:21;21.50;99.90
33803;DHT22;20110;53.120;5.786;2023-05-07T15:36:47;21.90;99.90
33803;DHT22;20110;53.120;5.786;2023-05-07T15:39:13;21.80;99.90
33803;DHT22;20110;53.120;5.786;2023-05-07T15:41:39;21.60;99.90
33803;DHT22;20110;53.120;5.786;2023-05-07T15:44:05;21.90;99.90